sensor_id;sensor_type;location;lat;lon;timestamp;pressure;altitude;pressure_sealevel;temperature
11424;BMP180;5768;51.476;7.210;2023-09-19T00:02:55;99491.00;;;18.50
11424;BMP180;5768;51.476;7.210;2023-09-19T00:08:00;99493.00;;;18.50
11424;BMP180;5768;51.476;7.210;2023-09-19T00:13:04;99508.00;;;18.40
11424;BMP180;5768;51.476;7.210;2023-09-19T00:18:08;99508.00;;;18.30
11424;BMP180;5768;51.476;7.210;2023-09-19T00:23:11;99518.00;;;18.30
11424;BMP180;5768;51.476;7.210;2023-09-19T00:28:15;99506.00;;;18.20
11424;BMP180;5768;51.476;7.210;2023-09-19T00:33:18;99513.00;;;18.10
11424;BMP180;5768;51.476;7.210;2023-09-19T00:38:21;99509.00;;;18.10
11424;BMP180;5768;51.476;7.210;2023-09-19T00:43:29;99525.00;;;18.00
11424;BMP180;5768;51.476;7.210;2023-09-19T00:48:41;99514.00;;;18.00
11424;BMP180;5768;51.476;7.210;2023-09-19T00:53:45;99523.00;;;17.90
11424;BMP180;5768;51.476;7.210;2023-09-19T00:58:49;99524.00;;;17.90
11424;BMP180;5768;51.476;7.210;2023-09-19T01:03:52;99542.00;;;17.90
11424;BMP180;5768;51.476;7.210;2023-09-19T01:08:54;99556.00;;;17.80
11424;BMP180;5768;51.476;7.210;2023-09-19T01:14:08;99545.00;;;17.80
11424;BMP180;5768;51.476;7.210;2023-09-19T01:20:02;99566.00;;;17.80
11424;BMP180;5768;51.476;7.210;2023-09-19T01:30:58;99553.00;;;17.70
11424;BMP180;5768;51.476;7.210;2023-09-19T01:36:01;99569.00;;;17.60
11424;BMP180;5768;51.476;7.210;2023-09-19T01:41:11;99565.00;;;17.60
11424;BMP180;5768;51.476;7.210;2023-09-19T01:46:24;99584.00;;;17.60
11424;BMP180;5768;51.476;7.210;2023-09-19T01:51:37;99596.00;;;17.50
11424;BMP180;5768;51.476;7.210;2023-09-19T01:56:50;99584.00;;;17.50
11424;BMP180;5768;51.476;7.210;2023-09-19T02:01:55;99582.00;;;17.40
11424;BMP180;5768;51.476;7.210;2023-09-19T02:06:58;99589.00;;;17.40
11424;BMP180;5768;51.476;7.210;2023-09-19T02:12:02;99596.00;;;17.40
11424;BMP180;5768;51.476;7.210;2023-09-19T02:17:07;99590.00;;;17.40
11424;BMP180;5768;51.476;7.210;2023-09-19T02:22:12;99605.00;;;17.30
11424;BMP180;5768;51.476;7.210;2023-09-19T02:27:15;99598.00;;;17.30
11424;BMP180;5768;51.476;7.210;2023-09-19T02:32:19;99609.00;;;17.30
11424;BMP180;5768;51.476;7.210;2023-09-19T02:37:22;99598.00;;;17.20
11424;BMP180;5768;51.476;7.210;2023-09-19T02:42:24;99624.00;;;17.20
11424;BMP180;5768;51.476;7.210;2023-09-19T02:47:28;99608.00;;;17.20
11424;BMP180;5768;51.476;7.210;2023-09-19T02:52:32;99608.00;;;17.20
11424;BMP180;5768;51.476;7.210;2023-09-19T02:57:35;99614.00;;;17.20
11424;BMP180;5768;51.476;7.210;2023-09-19T03:02:42;99634.00;;;17.20
11424;BMP180;5768;51.476;7.210;2023-09-19T03:07:46;99634.00;;;17.20
11424;BMP180;5768;51.476;7.210;2023-09-19T03:12:52;99633.00;;;17.20
11424;BMP180;5768;51.476;7.210;2023-09-19T03:17:55;99659.00;;;17.20
11424;BMP180;5768;51.476;7.210;2023-09-19T03:22:59;99649.00;;;17.20
11424;BMP180;5768;51.476;7.210;2023-09-19T03:28:01;99642.00;;;17.20
11424;BMP180;5768;51.476;7.210;2023-09-19T03:33:08;99642.00;;;17.10
11424;BMP180;5768;51.476;7.210;2023-09-19T03:38:13;99648.00;;;17.10
11424;BMP180;5768;51.476;7.210;2023-09-19T03:43:15;99642.00;;;17.10
11424;BMP180;5768;51.476;7.210;2023-09-19T03:48:19;99653.00;;;17.00
11424;BMP180;5768;51.476;7.210;2023-09-19T03:53:22;99648.00;;;17.00
11424;BMP180;5768;51.476;7.210;2023-09-19T03:58:25;99649.00;;;17.00
11424;BMP180;5768;51.476;7.210;2023-09-19T04:03:29;99641.00;;;17.00
11424;BMP180;5768;51.476;7.210;2023-09-19T04:08:36;99648.00;;;17.00
11424;BMP180;5768;51.476;7.210;2023-09-19T04:13:38;99647.00;;;17.00
11424;BMP180;5768;51.476;7.210;2023-09-19T04:18:41;99649.00;;;17.00
11424;BMP180;5768;51.476;7.210;2023-09-19T04:23:44;99655.00;;;17.00
11424;BMP180;5768;51.476;7.210;2023-09-19T04:28:46;99651.00;;;17.00
11424;BMP180;5768;51.476;7.210;2023-09-19T04:33:49;99647.00;;;16.90
11424;BMP180;5768;51.476;7.210;2023-09-19T04:38:52;99647.00;;;16.90
11424;BMP180;5768;51.476;7.210;2023-09-19T04:43:54;99647.00;;;17.00
11424;BMP180;5768;51.476;7.210;2023-09-19T04:48:58;99649.00;;;16.90
11424;BMP180;5768;51.476;7.210;2023-09-19T04:54:02;99667.00;;;16.90
11424;BMP180;5768;51.476;7.210;2023-09-19T04:59:04;99656.00;;;16.90
11424;BMP180;5768;51.476;7.210;2023-09-19T05:04:08;99678.00;;;16.90
11424;BMP180;5768;51.476;7.210;2023-09-19T05:09:10;99675.00;;;16.90
11424;BMP180;5768;51.476;7.210;2023-09-19T05:14:13;99682.00;;;16.90
11424;BMP180;5768;51.476;7.210;2023-09-19T05:19:16;99686.00;;;16.90
11424;BMP180;5768;51.476;7.210;2023-09-19T05:24:19;99694.00;;;16.90
11424;BMP180;5768;51.476;7.210;2023-09-19T05:29:25;99713.00;;;16.90
11424;BMP180;5768;51.476;7.210;2023-09-19T05:34:29;99734.00;;;16.90
11424;BMP180;5768;51.476;7.210;2023-09-19T05:39:31;99749.00;;;17.00
11424;BMP180;5768;51.476;7.210;2023-09-19T05:44:33;99734.00;;;17.00
11424;BMP180;5768;51.476;7.210;2023-09-19T05:49:38;99737.00;;;17.10
11424;BMP180;5768;51.476;7.210;2023-09-19T05:54:40;99744.00;;;17.20
11424;BMP180;5768;51.476;7.210;2023-09-19T05:59:43;99751.00;;;17.40
11424;BMP180;5768;51.476;7.210;2023-09-19T06:04:47;99749.00;;;17.50
11424;BMP180;5768;51.476;7.210;2023-09-19T06:09:50;99754.00;;;17.60
11424;BMP180;5768;51.476;7.210;2023-09-19T06:14:52;99771.00;;;17.70
11424;BMP180;5768;51.476;7.210;2023-09-19T06:19:56;99756.00;;;17.80
11424;BMP180;5768;51.476;7.210;2023-09-19T06:24:58;99748.00;;;17.90
11424;BMP180;5768;51.476;7.210;2023-09-19T06:30:01;99754.00;;;17.90
11424;BMP180;5768;51.476;7.210;2023-09-19T06:35:06;99754.00;;;18.00
11424;BMP180;5768;51.476;7.210;2023-09-19T06:40:11;99768.00;;;18.00
11424;BMP180;5768;51.476;7.210;2023-09-19T06:45:15;99765.00;;;18.10
11424;BMP180;5768;51.476;7.210;2023-09-19T06:50:22;99766.00;;;18.20
11424;BMP180;5768;51.476;7.210;2023-09-19T06:55:24;99763.00;;;18.30
11424;BMP180;5768;51.476;7.210;2023-09-19T07:00:29;99766.00;;;18.30
11424;BMP180;5768;51.476;7.210;2023-09-19T07:05:35;99783.00;;;18.30
11424;BMP180;5768;51.476;7.210;2023-09-19T07:10:39;99780.00;;;18.40
11424;BMP180;5768;51.476;7.210;2023-09-19T07:15:43;99772.00;;;18.50
11424;BMP180;5768;51.476;7.210;2023-09-19T07:20:48;99776.00;;;18.60
11424;BMP180;5768;51.476;7.210;2023-09-19T07:25:51;99792.00;;;18.60
11424;BMP180;5768;51.476;7.210;2023-09-19T07:30:53;99794.00;;;18.80
11424;BMP180;5768;51.476;7.210;2023-09-19T07:35:57;99787.00;;;18.90
11424;BMP180;5768;51.476;7.210;2023-09-19T07:41:01;99796.00;;;19.00
11424;BMP180;5768;51.476;7.210;2023-09-19T07:46:05;99797.00;;;19.10
11424;BMP180;5768;51.476;7.210;2023-09-19T07:51:11;99795.00;;;19.10
11424;BMP180;5768;51.476;7.210;2023-09-19T07:56:16;99800.00;;;19.20
11424;BMP180;5768;51.476;7.210;2023-09-19T08:01:21;99810.00;;;19.20
11424;BMP180;5768;51.476;7.210;2023-09-19T08:06:26;99811.00;;;19.30
11424;BMP180;5768;51.476;7.210;2023-09-19T08:11:31;99826.00;;;19.50
11424;BMP180;5768;51.476;7.210;2023-09-19T08:16:33;99818.00;;;19.60
11424;BMP180;5768;51.476;7.210;2023-09-19T08:21:37;99823.00;;;19.70
11424;BMP180;5768;51.476;7.210;2023-09-19T08:26:46;99830.00;;;19.90
11424;BMP180;5768;51.476;7.210;2023-09-19T08:31:49;99835.00;;;19.80
11424;BMP180;5768;51.476;7.210;2023-09-19T08:36:56;99845.00;;;19.70
11424;BMP180;5768;51.476;7.210;2023-09-19T08:41:59;99838.00;;;19.60
11424;BMP180;5768;51.476;7.210;2023-09-19T08:47:10;99843.00;;;19.90
11424;BMP180;5768;51.476;7.210;2023-09-19T08:52:20;99839.00;;;20.10
11424;BMP180;5768;51.476;7.210;2023-09-19T08:57:25;99836.00;;;20.50
11424;BMP180;5768;51.476;7.210;2023-09-19T09:02:32;99837.00;;;20.70
11424;BMP180;5768;51.476;7.210;2023-09-19T09:07:38;99846.00;;;20.70
11424;BMP180;5768;51.476;7.210;2023-09-19T09:12:41;99850.00;;;20.70
11424;BMP180;5768;51.476;7.210;2023-09-19T09:17:47;99847.00;;;20.60
11424;BMP180;5768;51.476;7.210;2023-09-19T09:22:54;99834.00;;;20.60
11424;BMP180;5768;51.476;7.210;2023-09-19T09:28:00;99856.00;;;20.90
11424;BMP180;5768;51.476;7.210;2023-09-19T09:33:11;99835.00;;;20.90
11424;BMP180;5768;51.476;7.210;2023-09-19T09:38:16;99830.00;;;20.90
11424;BMP180;5768;51.476;7.210;2023-09-19T09:43:31;99836.00;;;20.90
11424;BMP180;5768;51.476;7.210;2023-09-19T09:48:37;99839.00;;;20.80
11424;BMP180;5768;51.476;7.210;2023-09-19T09:53:41;99818.00;;;21.00
11424;BMP180;5768;51.476;7.210;2023-09-19T09:58:50;99834.00;;;21.10
11424;BMP180;5768;51.476;7.210;2023-09-19T10:03:58;99838.00;;;21.20
11424;BMP180;5768;51.476;7.210;2023-09-19T10:09:04;99850.00;;;21.20
11424;BMP180;5768;51.476;7.210;2023-09-19T10:14:24;99832.00;;;21.50
11424;BMP180;5768;51.476;7.210;2023-09-19T10:19:36;99843.00;;;21.60
11424;BMP180;5768;51.476;7.210;2023-09-19T10:24:40;99864.00;;;21.40
11424;BMP180;5768;51.476;7.210;2023-09-19T10:29:45;99798.00;;;21.30
11424;BMP180;5768;51.476;7.210;2023-09-19T10:34:51;99803.00;;;21.60
11424;BMP180;5768;51.476;7.210;2023-09-19T10:39:58;99806.00;;;21.50
11424;BMP180;5768;51.476;7.210;2023-09-19T10:45:04;99783.00;;;21.90
11424;BMP180;5768;51.476;7.210;2023-09-19T10:50:20;99800.00;;;22.10
11424;BMP180;5768;51.476;7.210;2023-09-19T10:55:27;99800.00;;;22.20
11424;BMP180;5768;51.476;7.210;2023-09-19T11:00:31;99807.00;;;22.40
11424;BMP180;5768;51.476;7.210;2023-09-19T11:06:09;99804.00;;;22.40
11424;BMP180;5768;51.476;7.210;2023-09-19T11:11:41;99799.00;;;22.30
11424;BMP180;5768;51.476;7.210;2023-09-19T11:17:29;99806.00;;;22.00
11424;BMP180;5768;51.476;7.210;2023-09-19T11:23:18;99824.00;;;22.00
11424;BMP180;5768;51.476;7.210;2023-09-19T11:28:35;99831.00;;;22.10
11424;BMP180;5768;51.476;7.210;2023-09-19T11:33:40;99797.00;;;22.20
11424;BMP180;5768;51.476;7.210;2023-09-19T11:39:00;99801.00;;;22.60
11424;BMP180;5768;51.476;7.210;2023-09-19T11:44:35;99819.00;;;23.50
11424;BMP180;5768;51.476;7.210;2023-09-19T11:49:40;99810.00;;;23.50
11424;BMP180;5768;51.476;7.210;2023-09-19T11:54:43;99838.00;;;23.40
11424;BMP180;5768;51.476;7.210;2023-09-19T11:59:50;99810.00;;;23.50
11424;BMP180;5768;51.476;7.210;2023-09-19T12:04:55;99818.00;;;23.60
11424;BMP180;5768;51.476;7.210;2023-09-19T12:10:04;99800.00;;;23.60
11424;BMP180;5768;51.476;7.210;2023-09-19T12:15:14;99810.00;;;23.90
11424;BMP180;5768;51.476;7.210;2023-09-19T12:20:16;99804.00;;;23.80
11424;BMP180;5768;51.476;7.210;2023-09-19T12:25:20;99781.00;;;23.90
11424;BMP180;5768;51.476;7.210;2023-09-19T12:30:28;99768.00;;;24.20
11424;BMP180;5768;51.476;7.210;2023-09-19T12:35:34;99760.00;;;24.40
11424;BMP180;5768;51.476;7.210;2023-09-19T12:40:37;99777.00;;;24.80
11424;BMP180;5768;51.476;7.210;2023-09-19T12:45:45;99769.00;;;25.60
11424;BMP180;5768;51.476;7.210;2023-09-19T12:51:06;99742.00;;;25.90
11424;BMP180;5768;51.476;7.210;2023-09-19T12:56:12;99749.00;;;26.20
11424;BMP180;5768;51.476;7.210;2023-09-19T13:01:17;99765.00;;;27.20
11424;BMP180;5768;51.476;7.210;2023-09-19T13:06:36;99781.00;;;27.00
11424;BMP180;5768;51.476;7.210;2023-09-19T13:11:42;99760.00;;;27.70
11424;BMP180;5768;51.476;7.210;2023-09-19T13:17:01;99744.00;;;28.20
11424;BMP180;5768;51.476;7.210;2023-09-19T13:22:38;99745.00;;;28.60
11424;BMP180;5768;51.476;7.210;2023-09-19T13:27:43;99754.00;;;29.40
11424;BMP180;5768;51.476;7.210;2023-09-19T13:32:47;99763.00;;;29.80
11424;BMP180;5768;51.476;7.210;2023-09-19T13:37:50;99768.00;;;29.80
11424;BMP180;5768;51.476;7.210;2023-09-19T13:42:52;99761.00;;;30.00
11424;BMP180;5768;51.476;7.210;2023-09-19T13:47:56;99750.00;;;30.80
11424;BMP180;5768;51.476;7.210;2023-09-19T13:52:59;99753.00;;;30.70
11424;BMP180;5768;51.476;7.210;2023-09-19T13:58:01;99753.00;;;29.50
11424;BMP180;5768;51.476;7.210;2023-09-19T14:03:08;99766.00;;;28.40
11424;BMP180;5768;51.476;7.210;2023-09-19T14:08:11;99753.00;;;27.40
11424;BMP180;5768;51.476;7.210;2023-09-19T14:13:14;99778.00;;;27.60
11424;BMP180;5768;51.476;7.210;2023-09-19T14:18:18;99774.00;;;26.30
11424;BMP180;5768;51.476;7.210;2023-09-19T14:23:20;99754.00;;;25.40
11424;BMP180;5768;51.476;7.210;2023-09-19T14:28:24;99764.00;;;25.50
11424;BMP180;5768;51.476;7.210;2023-09-19T14:33:27;99792.00;;;25.10
11424;BMP180;5768;51.476;7.210;2023-09-19T14:38:29;99761.00;;;24.60
11424;BMP180;5768;51.476;7.210;2023-09-19T14:43:34;99760.00;;;24.70
11424;BMP180;5768;51.476;7.210;2023-09-19T14:48:38;99751.00;;;24.40
11424;BMP180;5768;51.476;7.210;2023-09-19T14:53:41;99746.00;;;24.30
11424;BMP180;5768;51.476;7.210;2023-09-19T14:58:43;99763.00;;;24.10
11424;BMP180;5768;51.476;7.210;2023-09-19T15:03:47;99769.00;;;23.90
11424;BMP180;5768;51.476;7.210;2023-09-19T15:08:50;99771.00;;;23.70
11424;BMP180;5768;51.476;7.210;2023-09-19T15:13:53;99766.00;;;23.60
11424;BMP180;5768;51.476;7.210;2023-09-19T15:18:56;99770.00;;;23.40
11424;BMP180;5768;51.476;7.210;2023-09-19T15:23:59;99770.00;;;23.00
11424;BMP180;5768;51.476;7.210;2023-09-19T15:29:01;99753.00;;;22.90
11424;BMP180;5768;51.476;7.210;2023-09-19T15:34:05;99778.00;;;22.90
11424;BMP180;5768;51.476;7.210;2023-09-19T15:39:08;99746.00;;;22.90
11424;BMP180;5768;51.476;7.210;2023-09-19T15:44:14;99742.00;;;22.90
11424;BMP180;5768;51.476;7.210;2023-09-19T15:49:18;99757.00;;;23.20
11424;BMP180;5768;51.476;7.210;2023-09-19T15:54:21;99737.00;;;23.50
11424;BMP180;5768;51.476;7.210;2023-09-19T15:59:24;99741.00;;;24.10
11424;BMP180;5768;51.476;7.210;2023-09-19T16:04:27;99732.00;;;24.50
11424;BMP180;5768;51.476;7.210;2023-09-19T16:09:30;99748.00;;;25.60
11424;BMP180;5768;51.476;7.210;2023-09-19T16:14:32;99760.00;;;27.50
11424;BMP180;5768;51.476;7.210;2023-09-19T16:19:36;99743.00;;;25.30
11424;BMP180;5768;51.476;7.210;2023-09-19T16:24:38;99774.00;;;24.10
11424;BMP180;5768;51.476;7.210;2023-09-19T16:29:41;99741.00;;;23.40
11424;BMP180;5768;51.476;7.210;2023-09-19T16:34:44;99743.00;;;23.00
11424;BMP180;5768;51.476;7.210;2023-09-19T16:39:47;99730.00;;;22.80
11424;BMP180;5768;51.476;7.210;2023-09-19T16:44:51;99721.00;;;22.70
11424;BMP180;5768;51.476;7.210;2023-09-19T16:49:54;99727.00;;;22.60
11424;BMP180;5768;51.476;7.210;2023-09-19T16:54:57;99734.00;;;22.50
11424;BMP180;5768;51.476;7.210;2023-09-19T16:59:59;99727.00;;;22.40
11424;BMP180;5768;51.476;7.210;2023-09-19T17:05:04;99719.00;;;22.30
11424;BMP180;5768;51.476;7.210;2023-09-19T17:10:10;99726.00;;;22.20
11424;BMP180;5768;51.476;7.210;2023-09-19T17:15:13;99726.00;;;22.10
11424;BMP180;5768;51.476;7.210;2023-09-19T17:20:17;99727.00;;;22.00
11424;BMP180;5768;51.476;7.210;2023-09-19T17:25:19;99740.00;;;21.90
11424;BMP180;5768;51.476;7.210;2023-09-19T17:30:22;99728.00;;;21.80
11424;BMP180;5768;51.476;7.210;2023-09-19T17:35:26;99732.00;;;21.70
11424;BMP180;5768;51.476;7.210;2023-09-19T17:40:28;99731.00;;;21.80
11424;BMP180;5768;51.476;7.210;2023-09-19T17:45:32;99730.00;;;21.70
11424;BMP180;5768;51.476;7.210;2023-09-19T17:50:35;99723.00;;;21.70
11424;BMP180;5768;51.476;7.210;2023-09-19T17:55:40;99730.00;;;21.70
11424;BMP180;5768;51.476;7.210;2023-09-19T18:00:42;99738.00;;;21.80
11424;BMP180;5768;51.476;7.210;2023-09-19T18:05:51;99728.00;;;21.70
11424;BMP180;5768;51.476;7.210;2023-09-19T18:10:54;99739.00;;;21.70
11424;BMP180;5768;51.476;7.210;2023-09-19T18:15:57;99732.00;;;21.70
11424;BMP180;5768;51.476;7.210;2023-09-19T18:21:02;99731.00;;;21.60
11424;BMP180;5768;51.476;7.210;2023-09-19T18:26:05;99753.00;;;21.60
11424;BMP180;5768;51.476;7.210;2023-09-19T18:31:08;99753.00;;;21.60
11424;BMP180;5768;51.476;7.210;2023-09-19T18:36:12;99759.00;;;21.60
11424;BMP180;5768;51.476;7.210;2023-09-19T18:41:15;99748.00;;;21.60
11424;BMP180;5768;51.476;7.210;2023-09-19T18:46:17;99763.00;;;21.60
11424;BMP180;5768;51.476;7.210;2023-09-19T18:51:21;99757.00;;;21.50
11424;BMP180;5768;51.476;7.210;2023-09-19T18:56:25;99748.00;;;21.50
11424;BMP180;5768;51.476;7.210;2023-09-19T19:01:27;99751.00;;;21.40
11424;BMP180;5768;51.476;7.210;2023-09-19T19:06:32;99758.00;;;21.30
11424;BMP180;5768;51.476;7.210;2023-09-19T19:11:35;99741.00;;;21.20
11424;BMP180;5768;51.476;7.210;2023-09-19T19:16:38;99749.00;;;21.20
11424;BMP180;5768;51.476;7.210;2023-09-19T19:21:41;99745.00;;;21.20
11424;BMP180;5768;51.476;7.210;2023-09-19T19:26:44;99723.00;;;21.20
11424;BMP180;5768;51.476;7.210;2023-09-19T19:31:46;99748.00;;;21.20
11424;BMP180;5768;51.476;7.210;2023-09-19T19:36:51;99744.00;;;21.20
11424;BMP180;5768;51.476;7.210;2023-09-19T19:41:54;99732.00;;;21.20
11424;BMP180;5768;51.476;7.210;2023-09-19T19:46:56;99744.00;;;21.20
11424;BMP180;5768;51.476;7.210;2023-09-19T19:51:59;99753.00;;;21.10
11424;BMP180;5768;51.476;7.210;2023-09-19T19:57:01;99753.00;;;21.20
11424;BMP180;5768;51.476;7.210;2023-09-19T20:02:05;99755.00;;;21.10
11424;BMP180;5768;51.476;7.210;2023-09-19T20:07:08;99756.00;;;21.10
11424;BMP180;5768;51.476;7.210;2023-09-19T20:12:12;99750.00;;;21.10
11424;BMP180;5768;51.476;7.210;2023-09-19T20:17:14;99733.00;;;21.10
11424;BMP180;5768;51.476;7.210;2023-09-19T20:22:18;99737.00;;;21.10
11424;BMP180;5768;51.476;7.210;2023-09-19T20:27:21;99734.00;;;21.10
11424;BMP180;5768;51.476;7.210;2023-09-19T20:32:23;99749.00;;;21.00
11424;BMP180;5768;51.476;7.210;2023-09-19T20:37:26;99739.00;;;21.00
11424;BMP180;5768;51.476;7.210;2023-09-19T20:42:30;99749.00;;;21.00
11424;BMP180;5768;51.476;7.210;2023-09-19T20:47:32;99745.00;;;21.00
11424;BMP180;5768;51.476;7.210;2023-09-19T20:52:36;99748.00;;;21.00
11424;BMP180;5768;51.476;7.210;2023-09-19T20:57:39;99748.00;;;21.00
11424;BMP180;5768;51.476;7.210;2023-09-19T21:02:42;99752.00;;;21.00
11424;BMP180;5768;51.476;7.210;2023-09-19T21:07:49;99750.00;;;20.90
11424;BMP180;5768;51.476;7.210;2023-09-19T21:12:52;99765.00;;;20.80
11424;BMP180;5768;51.476;7.210;2023-09-19T21:17:54;99748.00;;;20.80
11424;BMP180;5768;51.476;7.210;2023-09-19T21:22:58;99749.00;;;20.80
11424;BMP180;5768;51.476;7.210;2023-09-19T21:28:01;99737.00;;;20.90
11424;BMP180;5768;51.476;7.210;2023-09-19T21:33:04;99755.00;;;20.90
11424;BMP180;5768;51.476;7.210;2023-09-19T21:38:08;99750.00;;;20.90
11424;BMP180;5768;51.476;7.210;2023-09-19T21:43:12;99733.00;;;20.80
11424;BMP180;5768;51.476;7.210;2023-09-19T21:48:14;99748.00;;;20.80
11424;BMP180;5768;51.476;7.210;2023-09-19T21:53:18;99720.00;;;20.80
11424;BMP180;5768;51.476;7.210;2023-09-19T21:58:20;99731.00;;;20.90
11424;BMP180;5768;51.476;7.210;2023-09-19T22:03:23;99739.00;;;20.90
11424;BMP180;5768;51.476;7.210;2023-09-19T22:08:27;99740.00;;;20.90
11424;BMP180;5768;51.476;7.210;2023-09-19T22:13:29;99736.00;;;20.90
11424;BMP180;5768;51.476;7.210;2023-09-19T22:18:34;99741.00;;;20.90
11424;BMP180;5768;51.476;7.210;2023-09-19T22:23:38;99742.00;;;20.80
11424;BMP180;5768;51.476;7.210;2023-09-19T22:28:42;99740.00;;;20.80
11424;BMP180;5768;51.476;7.210;2023-09-19T22:33:45;99737.00;;;20.80
11424;BMP180;5768;51.476;7.210;2023-09-19T22:38:52;99725.00;;;20.80
11424;BMP180;5768;51.476;7.210;2023-09-19T22:43:55;99722.00;;;20.80
11424;BMP180;5768;51.476;7.210;2023-09-19T22:48:58;99724.00;;;20.80
11424;BMP180;5768;51.476;7.210;2023-09-19T22:54:03;99735.00;;;20.90
11424;BMP180;5768;51.476;7.210;2023-09-19T22:59:11;99713.00;;;20.90
11424;BMP180;5768;51.476;7.210;2023-09-19T23:04:15;99719.00;;;20.90
11424;BMP180;5768;51.476;7.210;2023-09-19T23:09:21;99722.00;;;21.00
11424;BMP180;5768;51.476;7.210;2023-09-19T23:14:24;99725.00;;;21.00
11424;BMP180;5768;51.476;7.210;2023-09-19T23:19:33;99725.00;;;21.00
11424;BMP180;5768;51.476;7.210;2023-09-19T23:24:37;99731.00;;;21.00
11424;BMP180;5768;51.476;7.210;2023-09-19T23:29:41;99726.00;;;21.10
11424;BMP180;5768;51.476;7.210;2023-09-19T23:34:44;99726.00;;;21.10
11424;BMP180;5768;51.476;7.210;2023-09-19T23:39:50;99733.00;;;21.20
11424;BMP180;5768;51.476;7.210;2023-09-19T23:44:52;99737.00;;;21.10
11424;BMP180;5768;51.476;7.210;2023-09-19T23:49:55;99722.00;;;21.10
11424;BMP180;5768;51.476;7.210;2023-09-19T23:54:59;99721.00;;;21.10
